Time;durP1;ratioP1;P1;durP2;ratioP2;P2;SDS_P1;SDS_P2;PMS_P1;PMS_P2;Temp;Humidity;BMP_temperature;BMP_pressure;BME280_temperature;BME280_humidity;BME280_pressure;Samples;Min_cycle;Max_cycle;Signal;HPM_P1;HPM_P2
2022/11/01 00:01:30;;;;;;;5.28;4.55;;;18.10;62.00;;;;;;5046592;28;45290;-74
2022/11/01 00:03:57;;;;;;;7.43;4.40;;;18.10;62.00;;;;;;5046464;28;45300;-74
2022/11/01 00:06:24;;;;;;;6.20;4.03;;;18.10;62.00;;;;;;5046650;28;45370;-74
2022/11/01 00:08:51;;;;;;;5.57;4.50;;;18.10;62.00;;;;;;5046118;28;46418;-74
2022/11/01 00:11:18;;;;;;;4.85;4.35;;;18.20;62.00;;;;;;5046433;28;45258;-74
2022/11/01 00:13:45;;;;;;;6.78;4.40;;;18.20;62.10;;;;;;5046411;28;45240;-74
2022/11/01 00:16:12;;;;;;;7.57;4.68;;;18.10;62.20;;;;;;5046671;28;45262;-74
2022/11/01 00:18:40;;;;;;;7.40;4.38;;;18.10;62.10;;;;;;5046016;28;48087;-74
2022/11/01 00:21:07;;;;;;;6.63;4.63;;;18.10;62.00;;;;;;5045966;28;45238;-74
2022/11/01 00:23:35;;;;;;;6.30;4.60;;;18.10;62.10;;;;;;5046074;28;45285;-74
2022/11/01 00:26:07;;;;;;;5.25;4.03;;;18.10;62.10;;;;;;5046352;28;45328;-74
2022/11/01 00:28:34;;;;;;;6.47;4.22;;;18.10;62.10;;;;;;5045904;28;46446;-73
2022/11/01 00:31:01;;;;;;;6.47;4.15;;;18.10;61.90;;;;;;5045304;28;45358;-74
2022/11/01 00:33:28;;;;;;;5.75;4.30;;;18.10;61.90;;;;;;5046196;28;45320;-74
2022/11/01 00:36:00;;;;;;;5.93;4.07;;;18.10;61.90;;;;;;5046091;28;45305;-74
2022/11/01 00:38:27;;;;;;;5.70;4.30;;;18.20;62.00;;;;;;5045698;28;46394;-74
2022/11/01 00:40:54;;;;;;;6.35;4.50;;;18.10;62.00;;;;;;5046135;28;45261;-73
2022/11/01 00:43:21;;;;;;;5.10;3.97;;;18.10;62.00;;;;;;5045922;28;45301;-74
2022/11/01 00:45:48;;;;;;;7.88;4.63;;;18.10;61.90;;;;;;5046247;28;45396;-74
2022/11/01 00:48:15;;;;;;;5.07;4.18;;;18.10;61.90;;;;;;5045809;28;46522;-74
2022/11/01 00:50:41;;;;;;;6.05;3.95;;;18.10;61.90;;;;;;5045706;28;45324;-74
2022/11/01 00:53:11;;;;;;;4.70;3.85;;;18.10;62.10;;;;;;5045681;28;45302;-73
2022/11/01 00:55:38;;;;;;;5.32;4.07;;;18.10;62.00;;;;;;5045908;28;45197;-74
2022/11/01 00:58:05;;;;;;;6.72;4.45;;;18.10;62.10;;;;;;5045768;28;45477;-74
2022/11/01 01:00:32;;;;;;;6.50;4.13;;;18.10;62.10;;;;;;5048318;28;45368;-74
2022/11/01 01:02:59;;;;;;;4.97;3.97;;;18.10;62.00;;;;;;5049448;28;45425;-74
2022/11/01 01:05:26;;;;;;;4.80;3.80;;;18.10;62.00;;;;;;5049193;28;45169;-73
2022/11/01 01:07:53;;;;;;;5.93;4.05;;;18.20;62.00;;;;;;5048825;28;45409;-74
2022/11/01 01:10:21;;;;;;;5.95;3.80;;;18.20;61.90;;;;;;5048829;28;45226;-74
2022/11/01 01:12:48;;;;;;;5.57;4.00;;;18.10;61.80;;;;;;5048984;28;45289;-74
2022/11/01 01:15:15;;;;;;;5.50;3.72;;;18.10;61.80;;;;;;5048573;28;45291;-73
2022/11/01 01:17:42;;;;;;;4.75;3.65;;;18.10;61.90;;;;;;5048523;28;46917;-74
2022/11/01 01:20:10;;;;;;;5.93;3.83;;;18.20;61.90;;;;;;5048669;28;45334;-74
2022/11/01 01:22:36;;;;;;;7.07;4.15;;;18.10;61.80;;;;;;5049139;28;45330;-74
2022/11/01 01:25:03;;;;;;;4.70;3.92;;;18.10;61.80;;;;;;5049119;28;45304;-74
2022/11/01 01:27:32;;;;;;;5.55;4.05;;;18.10;61.90;;;;;;5048602;28;45466;-74
2022/11/01 01:29:59;;;;;;;8.23;4.00;;;18.10;61.90;;;;;;5048900;28;45141;-74
2022/11/01 01:32:26;;;;;;;5.20;3.80;;;18.10;61.90;;;;;;5049019;28;45174;-74
2022/11/01 01:34:53;;;;;;;5.80;3.50;;;18.10;62.00;;;;;;5049017;28;45555;-74
2022/11/01 01:37:20;;;;;;;5.15;3.55;;;18.10;61.90;;;;;;5048449;28;45559;-74
2022/11/01 01:39:47;;;;;;;4.63;3.50;;;18.10;61.90;;;;;;5048688;28;45140;-74
2022/11/01 01:42:18;;;;;;;4.30;3.40;;;18.10;61.90;;;;;;5048782;28;45178;-74
2022/11/01 01:45:21;;;;;;;4.50;3.67;;;18.10;61.80;;;;;;5048511;28;45288;-74
2022/11/01 01:47:51;;;;;;;5.00;3.50;;;18.20;61.80;;;;;;5025931;28;47234;-74
2022/11/01 01:50:21;;;;;;;6.38;3.72;;;18.20;61.80;;;;;;5048453;28;45151;-74
2022/11/01 01:52:51;;;;;;;5.05;3.80;;;18.20;61.80;;;;;;5048398;28;45249;-74
2022/11/01 01:55:21;;;;;;;4.47;3.20;;;18.20;61.80;;;;;;5048678;28;45276;-74
2022/11/01 01:57:48;;;;;;;4.97;3.70;;;18.20;61.70;;;;;;5048376;28;46348;-74
2022/11/01 02:00:15;;;;;;;5.45;3.40;;;18.20;61.80;;;;;;5048399;28;45279;-74
2022/11/01 02:02:43;;;;;;;4.40;3.58;;;18.20;61.80;;;;;;5048316;28;45126;-74
2022/11/01 02:05:15;;;;;;;4.38;3.58;;;18.20;62.60;;;;;;5048332;28;45467;-74
2022/11/01 02:07:42;;;;;;;4.95;3.25;;;18.20;61.70;;;;;;5047950;28;47681;-74
2022/11/01 02:10:10;;;;;;;5.80;3.42;;;18.20;61.70;;;;;;5047383;28;45230;-74
2022/11/01 02:12:37;;;;;;;4.97;3.47;;;18.20;61.70;;;;;;5047946;28;45343;-74
2022/11/01 02:15:04;;;;;;;5.30;3.30;;;18.20;61.70;;;;;;5048520;28;45393;-74
2022/11/01 02:17:32;;;;;;;4.85;3.20;;;18.20;61.80;;;;;;5047166;28;45650;-74
2022/11/01 02:20:33;;;;;;;3.75;2.80;;;18.20;61.70;;;;;;5047803;28;45215;-74
2022/11/01 02:23:13;;;;;;;3.85;2.95;;;18.20;61.80;;;;;;5027672;28;45531;-74
2022/11/01 02:25:51;;;;;;;4.22;3.60;;;18.10;61.70;;;;;;5048124;28;45409;-74
2022/11/01 02:28:28;;;;;;;3.97;2.92;;;18.10;61.80;;;;;;5047750;28;45538;-74
2022/11/01 02:30:59;;;;;;;3.88;3.10;;;18.20;61.90;;;;;;5047862;28;45250;-74
2022/11/01 02:33:29;;;;;;;4.82;3.42;;;18.10;61.80;;;;;;5048028;28;45199;-74
2022/11/01 02:35:59;;;;;;;3.53;3.00;;;18.20;61.90;;;;;;5048240;28;45286;-74
2022/11/01 02:38:28;;;;;;;4.20;3.20;;;18.10;61.80;;;;;;5047634;28;45241;-74
2022/11/01 02:41:00;;;;;;;3.55;3.00;;;18.10;61.80;;;;;;5046700;28;45308;-74
2022/11/01 02:43:29;;;;;;;3.22;2.90;;;18.20;61.80;;;;;;5047060;28;45322;-74
2022/11/01 02:45:56;;;;;;;5.50;3.20;;;18.10;62.60;;;;;;5047753;28;45224;-74
2022/11/01 02:48:22;;;;;;;5.22;3.05;;;18.10;61.80;;;;;;5047364;28;45293;-74
2022/11/01 02:50:52;;;;;;;4.38;3.53;;;18.10;61.80;;;;;;5047507;28;45262;-74
2022/11/01 02:53:18;;;;;;;3.20;2.90;;;18.10;61.80;;;;;;5047792;28;45336;-74
2022/11/01 02:55:45;;;;;;;3.70;2.92;;;18.10;61.70;;;;;;5047600;28;45288;-74
2022/11/01 02:58:15;;;;;;;4.25;3.08;;;18.20;61.70;;;;;;5047308;28;46416;-74
2022/11/01 03:00:44;;;;;;;4.65;2.95;;;18.10;61.70;;;;;;5047150;28;45280;-74
2022/11/01 03:03:14;;;;;;;3.20;2.90;;;18.20;61.70;;;;;;5047540;28;45275;-74
2022/11/01 03:05:48;;;;;;;4.47;3.22;;;18.20;61.70;;;;;;5047430;28;45214;-74
2022/11/01 03:08:17;;;;;;;3.35;3.05;;;18.20;61.70;;;;;;5046751;28;46357;-74
2022/11/01 03:10:46;;;;;;;4.10;2.90;;;18.20;61.60;;;;;;5047051;28;45323;-74
2022/11/01 03:13:31;;;;;;;3.20;2.80;;;18.20;61.70;;;;;;5047207;28;45197;-74
2022/11/01 03:16:07;;;;;;;4.82;2.97;;;18.20;61.60;;;;;;5047678;28;45508;-74
2022/11/01 03:18:36;;;;;;;4.35;2.88;;;18.20;61.60;;;;;;5047129;28;45194;-74
2022/11/01 03:21:14;;;;;;;6.07;2.92;;;18.20;61.60;;;;;;5046971;28;45331;-74
2022/11/01 03:23:45;;;;;;;3.72;2.80;;;18.20;61.60;;;;;;5046747;28;45300;-74
2022/11/01 03:26:12;;;;;;;4.20;3.22;;;18.20;61.60;;;;;;5046972;28;45448;-74
2022/11/01 03:28:40;;;;;;;3.53;2.83;;;18.20;61.60;;;;;;5046946;28;46916;-74
2022/11/01 03:31:08;;;;;;;3.05;2.75;;;18.20;61.60;;;;;;5047143;28;45185;-74
2022/11/01 03:33:36;;;;;;;4.65;2.85;;;18.20;61.60;;;;;;5047133;28;45309;-74
2022/11/01 03:36:06;;;;;;;3.63;2.63;;;18.20;61.60;;;;;;5047072;28;45281;-74
2022/11/01 03:38:35;;;;;;;2.90;2.55;;;18.20;61.70;;;;;;5046577;28;45227;-74
2022/11/01 03:41:04;;;;;;;3.72;2.70;;;18.20;61.70;;;;;;5046680;28;45509;-74
2022/11/01 03:43:31;;;;;;;4.15;3.05;;;18.10;61.60;;;;;;5046774;28;45349;-74
2022/11/01 03:45:58;;;;;;;3.03;2.65;;;18.20;61.70;;;;;;5047063;28;45176;-73
2022/11/01 03:48:25;;;;;;;4.93;2.92;;;18.20;61.70;;;;;;5045727;28;46485;-74
2022/11/01 03:50:55;;;;;;;5.22;3.00;;;18.20;61.70;;;;;;5046622;28;45534;-74
2022/11/01 03:53:22;;;;;;;3.55;2.65;;;18.20;61.70;;;;;;5046780;28;45293;-74
2022/11/01 03:55:48;;;;;;;3.70;2.67;;;18.20;61.60;;;;;;5046605;28;45448;-74
2022/11/01 03:58:17;;;;;;;3.53;2.42;;;18.20;61.60;;;;;;5046754;28;46726;-74
2022/11/01 04:00:44;;;;;;;3.05;2.67;;;18.20;61.60;;;;;;5046564;28;45348;-74
2022/11/01 04:03:11;;;;;;;3.13;2.22;;;18.20;61.70;;;;;;5046686;28;45297;-74
2022/11/01 04:05:40;;;;;;;3.42;2.53;;;18.20;61.60;;;;;;5046594;28;45404;-74
2022/11/01 04:08:08;;;;;;;3.75;2.40;;;18.20;61.60;;;;;;5046111;28;45371;-74
2022/11/01 04:10:35;;;;;;;2.60;2.40;;;18.20;61.70;;;;;;5046631;28;45285;-74
2022/11/01 04:13:02;;;;;;;2.80;2.50;;;18.20;61.60;;;;;;5046431;28;45182;-74
2022/11/01 04:21:02;;;;;;;2.95;2.50;;;18.20;61.70;;;;;;5046730;28;45238;-74
2022/11/01 04:23:28;;;;;;;2.88;2.40;;;18.20;61.70;;;;;;5046492;28;45352;-74
2022/11/01 04:25:55;;;;;;;4.38;2.67;;;18.20;61.70;;;;;;5046459;28;45557;-74
2022/11/01 04:28:22;;;;;;;2.75;2.50;;;18.20;61.70;;;;;;5046012;28;46357;-74
2022/11/01 04:30:51;;;;;;;2.60;2.20;;;18.20;61.60;;;;;;5046161;28;45198;-74
2022/11/01 04:33:17;;;;;;;2.40;2.20;;;18.20;61.70;;;;;;5046183;28;45339;-74
2022/11/01 04:35:44;;;;;;;2.42;2.28;;;18.20;61.70;;;;;;5049753;28;45318;-74
2022/11/01 04:38:11;;;;;;;3.30;2.15;;;18.20;61.60;;;;;;5049411;28;45300;-74
2022/11/01 04:40:38;;;;;;;2.58;2.03;;;18.20;61.60;;;;;;5049393;28;45198;-74
2022/11/01 04:43:05;;;;;;;2.97;2.58;;;18.20;61.50;;;;;;5049630;28;45262;-74
2022/11/01 04:45:32;;;;;;;2.65;2.15;;;18.30;61.50;;;;;;5049061;28;45350;-74
2022/11/01 04:48:05;;;;;;;2.83;1.95;;;18.30;61.50;;;;;;5049438;28;45412;-74
2022/11/01 04:50:32;;;;;;;3.70;2.38;;;18.20;61.50;;;;;;5049709;28;45264;-74
2022/11/01 04:52:59;;;;;;;2.60;2.40;;;18.20;61.50;;;;;;5049514;28;45360;-74
2022/11/01 04:55:26;;;;;;;1.85;1.73;;;18.30;61.70;;;;;;5049631;28;45310;-74
2022/11/01 04:57:53;;;;;;;3.28;2.25;;;18.30;61.60;;;;;;5049163;28;45881;-74
2022/11/01 05:00:21;;;;;;;2.63;2.08;;;18.30;61.60;;;;;;5048893;28;45222;-74
2022/11/01 05:02:48;;;;;;;2.35;2.15;;;18.30;61.60;;;;;;5049201;28;45325;-74
2022/11/01 05:05:17;;;;;;;2.40;2.20;;;18.30;61.60;;;;;;5049474;28;45337;-74
2022/11/01 05:07:44;;;;;;;2.10;1.90;;;18.30;61.60;;;;;;5048649;28;46585;-74
2022/11/01 05:10:10;;;;;;;4.10;2.13;;;18.30;61.60;;;;;;5048997;28;45201;-74
2022/11/01 05:12:37;;;;;;;2.72;2.25;;;18.30;61.60;;;;;;5049227;28;45320;-74
2022/11/01 05:15:05;;;;;;;1.90;1.80;;;18.30;61.60;;;;;;5049088;28;45284;-74
2022/11/01 05:17:32;;;;;;;3.30;2.22;;;18.30;61.60;;;;;;5049229;28;46478;-74
2022/11/01 05:19:59;;;;;;;2.33;2.13;;;18.30;61.70;;;;;;5048984;28;45276;-74
2022/11/01 05:22:27;;;;;;;3.05;1.95;;;18.30;61.60;;;;;;5048822;28;45210;-74
2022/11/01 05:24:55;;;;;;;2.20;1.90;;;18.30;61.70;;;;;;5049479;28;45222;-74
2022/11/01 05:27:22;;;;;;;2.00;1.88;;;18.30;61.60;;;;;;5048698;28;46815;-74
2022/11/01 05:29:48;;;;;;;2.08;1.88;;;18.30;61.70;;;;;;5048499;28;45208;-72
2022/11/01 05:32:16;;;;;;;2.10;1.90;;;18.30;61.60;;;;;;5047988;28;45200;-74
2022/11/01 05:34:43;;;;;;;2.15;1.95;;;18.30;61.60;;;;;;5049046;28;45315;-74
2022/11/01 05:37:10;;;;;;;2.50;2.20;;;18.30;61.60;;;;;;5048683;28;45433;-74
2022/11/01 05:39:38;;;;;;;2.08;1.98;;;18.30;61.50;;;;;;5048473;28;45222;-74
2022/11/01 05:42:05;;;;;;;2.35;1.90;;;18.30;61.60;;;;;;5048490;28;45198;-74
2022/11/01 05:44:32;;;;;;;1.95;1.85;;;18.30;61.60;;;;;;5048733;28;45456;-74
2022/11/01 05:46:59;;;;;;;2.13;1.90;;;18.30;61.60;;;;;;5048267;28;45316;-74
2022/11/01 05:49:26;;;;;;;2.53;1.92;;;18.30;61.60;;;;;;5048475;28;45305;-74
2022/11/01 05:51:53;;;;;;;1.88;1.58;;;18.30;61.60;;;;;;5048504;28;45309;-74
2022/11/01 05:54:20;;;;;;;2.90;1.52;;;18.30;61.50;;;;;;5049049;28;45192;-74
2022/11/01 05:56:49;;;;;;;2.70;2.20;;;18.30;61.60;;;;;;5048429;28;45343;-75
2022/11/01 05:59:16;;;;;;;1.92;1.80;;;18.30;61.60;;;;;;5048485;28;45318;-74
2022/11/01 06:01:43;;;;;;;3.17;1.92;;;18.30;61.60;;;;;;5048451;28;45198;-75
2022/11/01 06:04:10;;;;;;;2.13;1.80;;;18.30;61.60;;;;;;5048955;28;45187;-74
2022/11/01 06:06:37;;;;;;;1.98;1.77;;;18.30;61.60;;;;;;5048148;28;45259;-74
2022/11/01 06:09:04;;;;;;;1.92;1.80;;;18.30;61.60;;;;;;5048689;28;45407;-75
2022/11/01 06:11:30;;;;;;;1.95;1.70;;;18.30;61.60;;;;;;5048312;28;45423;-73
2022/11/01 06:13:59;;;;;;;2.72;1.73;;;18.30;61.50;;;;;;5048481;28;45213;-73
2022/11/01 06:16:26;;;;;;;2.25;1.50;;;18.30;61.50;;;;;;5047875;28;46680;-74
2022/11/01 06:18:53;;;;;;;1.67;1.58;;;18.30;62.20;;;;;;5048397;28;45349;-73
2022/11/01 06:21:21;;;;;;;1.67;1.58;;;18.30;61.50;;;;;;5048486;28;45407;-73
2022/11/01 06:23:49;;;;;;;2.00;1.80;;;18.30;61.50;;;;;;5048651;28;45506;-73
2022/11/01 06:26:16;;;;;;;2.28;1.60;;;18.30;61.50;;;;;;5047992;28;46458;-73
2022/11/01 06:28:43;;;;;;;1.70;1.60;;;18.30;61.50;;;;;;5047849;28;45353;-73
2022/11/01 06:31:11;;;;;;;2.13;1.92;;;18.30;61.50;;;;;;5048396;28;45281;-74
2022/11/01 06:33:38;;;;;;;2.13;1.80;;;18.30;61.50;;;;;;5048465;28;45388;-73
2022/11/01 06:36:06;;;;;;;1.60;1.50;;;18.30;61.50;;;;;;5048136;28;46579;-74
2022/11/01 06:38:33;;;;;;;1.88;1.75;;;18.30;61.50;;;;;;5047931;28;45179;-73
2022/11/01 06:40:59;;;;;;;3.58;1.95;;;18.30;61.50;;;;;;5047915;28;45277;-74
2022/11/01 06:43:27;;;;;;;1.85;1.40;;;18.30;61.50;;;;;;5048158;28;45297;-73
2022/11/01 06:45:53;;;;;;;1.77;1.60;;;18.30;61.60;;;;;;5047708;28;45690;-74
2022/11/01 06:48:22;;;;;;;1.40;1.30;;;18.30;62.30;;;;;;5047559;28;45228;-73
2022/11/01 06:50:50;;;;;;;2.25;1.58;;;18.30;61.50;;;;;;5047644;28;45328;-73
2022/11/01 06:53:17;;;;;;;1.45;1.35;;;18.30;61.60;;;;;;5047765;28;45526;-74
2022/11/01 06:55:44;;;;;;;1.73;1.40;;;18.30;61.50;;;;;;5047482;28;45762;-74
2022/11/01 06:58:11;;;;;;;1.65;1.52;;;18.30;61.50;;;;;;5046270;28;45356;-73
2022/11/01 07:00:38;;;;;;;1.88;1.60;;;18.30;61.50;;;;;;5047403;28;45332;-73
2022/11/01 07:03:06;;;;;;;2.13;1.58;;;18.30;61.50;;;;;;5047410;28;45470;-73
2022/11/01 07:05:35;;;;;;;1.40;1.30;;;18.30;61.50;;;;;;5047575;28;46645;-74
2022/11/01 07:08:02;;;;;;;1.42;1.33;;;18.30;61.50;;;;;;5047341;28;45243;-74
2022/11/01 07:10:29;;;;;;;1.50;1.40;;;18.30;61.50;;;;;;5047535;28;45206;-73
2022/11/01 07:12:59;;;;;;;1.63;1.52;;;18.30;61.50;;;;;;5047917;28;45436;-73
2022/11/01 07:15:26;;;;;;;1.75;1.65;;;18.30;61.60;;;;;;5046861;28;45281;-73
2022/11/01 07:17:55;;;;;;;1.42;1.30;;;18.30;61.50;;;;;;5047289;28;45205;-73
2022/11/01 07:20:22;;;;;;;1.23;1.17;;;18.30;61.50;;;;;;5047162;28;45347;-73
2022/11/01 07:22:59;;;;;;;1.40;1.30;;;18.30;61.50;;;;;;5047284;28;45230;-73
2022/11/01 07:25:25;;;;;;;1.52;1.33;;;18.30;61.50;;;;;;5046963;28;46413;-74
2022/11/01 07:27:52;;;;;;;1.88;1.30;;;18.30;61.50;;;;;;5046864;28;45247;-73
2022/11/01 07:30:19;;;;;;;2.00;1.25;;;18.30;62.20;;;;;;5046950;28;45246;-74
2022/11/01 07:32:46;;;;;;;1.55;1.45;;;18.30;61.50;;;;;;5047413;28;45442;-73
2022/11/01 07:35:13;;;;;;;1.40;1.30;;;18.30;61.80;;;;;;5046587;28;45221;-74
2022/11/01 07:37:40;;;;;;;1.35;1.20;;;18.30;61.50;;;;;;5046803;28;45259;-73
2022/11/01 07:40:09;;;;;;;1.27;1.17;;;18.30;61.60;;;;;;5047334;28;45466;-74
2022/11/01 07:42:41;;;;;;;1.40;1.30;;;18.30;61.60;;;;;;5046866;28;45417;-74
2022/11/01 07:45:09;;;;;;;1.40;1.30;;;18.30;61.60;;;;;;5046638;28;45376;-74
2022/11/01 07:47:36;;;;;;;1.52;1.20;;;18.30;61.60;;;;;;5046683;28;45317;-73
2022/11/01 07:50:04;;;;;;;1.38;1.27;;;18.30;61.50;;;;;;5046951;28;45138;-74
2022/11/01 07:52:30;;;;;;;1.40;1.30;;;18.30;61.50;;;;;;5046369;28;45233;-74
2022/11/01 07:54:57;;;;;;;1.48;1.20;;;18.30;61.50;;;;;;5046665;28;45237;-74
2022/11/01 07:57:26;;;;;;;1.05;1.02;;;18.30;61.50;;;;;;5046698;28;45419;-74
2022/11/01 07:59:53;;;;;;;1.27;1.02;;;18.30;61.60;;;;;;5046610;28;45299;-74
2022/11/01 08:02:20;;;;;;;1.35;1.20;;;18.30;61.50;;;;;;5046984;28;45254;-74
2022/11/01 08:04:47;;;;;;;1.20;1.10;;;18.30;61.50;;;;;;5046539;28;46249;-73
2022/11/01 08:07:14;;;;;;;1.40;1.30;;;18.30;61.50;;;;;;5046193;28;45423;-74
2022/11/01 08:09:42;;;;;;;1.40;1.30;;;18.30;61.50;;;;;;5048605;28;45323;-74
2022/11/01 08:12:09;;;;;;;1.08;0.98;;;18.30;61.50;;;;;;5050392;28;45144;-74
2022/11/01 08:14:38;;;;;;;1.00;1.00;;;18.30;61.50;;;;;;5050127;28;45256;-74
2022/11/01 08:17:04;;;;;;;1.45;1.35;;;18.40;61.50;;;;;;5050073;28;45328;-74
2022/11/01 08:19:31;;;;;;;1.15;1.15;;;18.30;61.50;;;;;;5050264;28;45357;-74
2022/11/01 08:21:58;;;;;;;1.23;1.13;;;18.30;61.60;;;;;;5049934;28;45225;-74
2022/11/01 08:24:25;;;;;;;1.35;1.25;;;18.30;61.60;;;;;;5049732;28;46829;-74
2022/11/01 08:26:52;;;;;;;1.25;1.15;;;18.40;61.60;;;;;;5049701;28;45282;-73
2022/11/01 08:29:19;;;;;;;1.20;1.10;;;18.30;61.50;;;;;;5050101;28;45359;-74
2022/11/01 08:31:48;;;;;;;1.92;1.33;;;18.40;61.60;;;;;;5049990;28;45533;-73
2022/11/01 08:34:14;;;;;;;1.10;1.10;;;18.40;61.70;;;;;;5049529;28;45652;-74
2022/11/01 08:36:41;;;;;;;1.00;1.00;;;18.30;61.60;;;;;;5049073;28;45281;-74
2022/11/01 08:39:08;;;;;;;1.63;1.10;;;18.40;61.70;;;;;;5049938;28;45268;-74
2022/11/01 08:41:35;;;;;;;1.10;1.00;;;18.40;61.60;;;;;;5049644;28;45313;-74
2022/11/01 08:44:02;;;;;;;1.10;1.00;;;18.40;61.60;;;;;;5049582;28;46584;-74
2022/11/01 08:46:29;;;;;;;1.48;1.20;;;18.40;61.60;;;;;;5049374;28;45206;-74
2022/11/01 08:48:59;;;;;;;2.38;1.30;;;18.40;61.50;;;;;;5049411;28;45189;-74
2022/11/01 08:51:26;;;;;;;0.95;0.90;;;18.40;61.50;;;;;;5049667;28;45482;-74
2022/11/01 08:53:54;;;;;;;1.48;1.20;;;18.40;61.50;;;;;;5049268;28;46635;-73
2022/11/01 08:56:23;;;;;;;1.58;0.95;;;18.40;61.50;;;;;;5049261;28;45214;-74
2022/11/01 08:58:50;;;;;;;1.45;1.20;;;18.40;61.50;;;;;;5049517;28;45245;-73
2022/11/01 09:01:17;;;;;;;1.00;1.00;;;18.40;61.50;;;;;;5049426;28;45451;-74
2022/11/01 09:03:44;;;;;;;1.25;1.00;;;18.40;61.50;;;;;;5048893;28;46484;-74
2022/11/01 09:06:12;;;;;;;1.13;1.02;;;18.40;61.50;;;;;;5048934;28;45226;-74
2022/11/01 09:08:39;;;;;;;1.25;1.20;;;18.40;61.50;;;;;;5048894;28;45366;-74
2022/11/01 09:11:06;;;;;;;1.10;1.10;;;18.40;61.50;;;;;;5049265;28;45519;-74
2022/11/01 09:13:33;;;;;;;1.05;0.90;;;18.50;61.50;;;;;;5048844;28;47872;-74
2022/11/01 09:16:00;;;;;;;1.13;1.02;;;18.50;61.60;;;;;;5049031;28;45288;-73
2022/11/01 09:18:27;;;;;;;1.40;1.30;;;18.50;61.60;;;;;;5049109;28;45197;-73
2022/11/01 09:20:54;;;;;;;2.17;1.30;;;18.50;61.50;;;;;;5047787;28;45346;-74
2022/11/01 09:23:23;;;;;;;1.23;1.10;;;18.50;61.50;;;;;;5048424;28;45441;-74
2022/11/01 09:25:50;;;;;;;1.10;1.00;;;18.50;61.40;;;;;;5048790;28;45170;-74
2022/11/01 09:28:17;;;;;;;1.00;1.00;;;18.50;61.40;;;;;;5049074;28;45280;-74
2022/11/01 09:30:44;;;;;;;2.83;1.13;;;18.50;61.40;;;;;;5049064;28;45263;-74
2022/11/01 09:33:11;;;;;;;0.98;0.98;;;18.50;61.40;;;;;;5047580;28;45440;-73
2022/11/01 09:35:38;;;;;;;1.02;0.93;;;18.60;61.30;;;;;;5028476;28;45241;-75
2022/11/01 09:38:05;;;;;;;1.35;0.90;;;18.60;61.30;;;;;;5028635;28;45201;-74
2022/11/01 09:40:37;;;;;;;0.90;0.90;;;18.60;61.30;;;;;;5042538;28;45483;-74
2022/11/01 09:43:06;;;;;;;4.78;1.00;;;18.60;61.30;;;;;;5049236;28;45358;-74
2022/11/01 09:45:33;;;;;;;1.15;1.00;;;18.70;61.40;;;;;;5048634;28;45265;-75
2022/11/01 09:48:00;;;;;;;2.15;0.90;;;18.70;61.40;;;;;;5048633;28;45309;-74
2022/11/01 09:50:28;;;;;;;0.95;0.90;;;18.70;61.30;;;;;;5048356;28;45554;-74
2022/11/01 09:52:56;;;;;;;2.45;1.05;;;18.70;61.20;;;;;;5048129;28;46402;-73
2022/11/01 09:55:25;;;;;;;1.77;0.90;;;18.80;61.20;;;;;;5048390;28;45194;-73
2022/11/01 09:57:57;;;;;;;0.90;0.90;;;18.80;61.10;;;;;;5048552;28;45281;-74
2022/11/01 10:00:35;;;;;;;1.10;1.00;;;18.80;61.20;;;;;;5043414;28;45125;-74
2022/11/01 10:03:14;;;;;;;0.90;0.90;;;18.80;61.00;;;;;;5045821;28;46648;-74
2022/11/01 10:05:47;;;;;;;0.85;0.85;;;18.80;61.10;;;;;;5047890;28;45250;-73
2022/11/01 10:08:17;;;;;;;0.98;0.80;;;18.80;61.20;;;;;;5048056;28;45508;-73
2022/11/01 10:10:47;;;;;;;0.85;0.85;;;18.90;61.20;;;;;;5048501;28;45337;-73
2022/11/01 10:13:24;;;;;;;0.77;0.77;;;18.90;61.20;;;;;;5045006;28;45484;-73
2022/11/01 10:15:56;;;;;;;1.10;1.00;;;18.90;61.30;;;;;;5044695;28;45509;-73
2022/11/01 10:18:27;;;;;;;0.88;0.88;;;18.90;61.30;;;;;;5048059;28;45253;-74
2022/11/01 10:20:56;;;;;;;1.13;0.98;;;18.90;62.00;;;;;;5046672;28;45209;-74
2022/11/01 10:23:30;;;;;;;1.50;1.05;;;19.00;61.80;;;;;;5046681;28;45547;-74
2022/11/01 10:26:02;;;;;;;2.97;1.20;;;19.00;62.00;;;;;;5046246;28;45308;-74
2022/11/01 10:28:32;;;;;;;1.98;1.20;;;19.00;62.20;;;;;;5047915;28;45241;-72
2022/11/01 10:31:02;;;;;;;1.63;1.00;;;19.00;62.10;;;;;;5035442;28;45479;-72
2022/11/01 10:33:30;;;;;;;3.05;1.13;;;19.00;63.00;;;;;;5045562;28;45541;-71
2022/11/01 10:36:01;;;;;;;1.00;0.90;;;19.00;63.10;;;;;;5045715;28;45666;-72
2022/11/01 10:38:36;;;;;;;3.80;1.00;;;19.00;63.70;;;;;;5047166;28;45154;-72
2022/11/01 10:41:10;;;;;;;5.65;1.13;;;19.00;63.70;;;;;;5034752;28;45192;-71
2022/11/01 10:43:40;;;;;;;1.95;0.98;;;19.10;63.50;;;;;;5047175;28;46416;-71
2022/11/01 10:46:08;;;;;;;2.40;0.60;;;19.00;64.90;;;;;;5047734;28;45344;-71
2022/11/01 10:48:37;;;;;;;1.85;1.25;;;19.00;65.20;;;;;;5046938;28;45274;-73
2022/11/01 10:51:06;;;;;;;1.33;0.82;;;19.00;65.20;;;;;;5047701;28;45559;-73
2022/11/01 10:53:34;;;;;;;3.85;1.00;;;19.00;64.80;;;;;;5046873;28;46660;-72
2022/11/01 10:56:04;;;;;;;3.33;0.90;;;19.10;64.90;;;;;;5047664;28;45198;-73
2022/11/01 10:58:33;;;;;;;1.35;0.82;;;19.10;64.80;;;;;;5047469;28;45281;-72
2022/11/01 11:01:02;;;;;;;2.05;1.15;;;19.10;65.60;;;;;;5047532;28;45186;-73
2022/11/01 11:03:30;;;;;;;1.30;1.00;;;19.20;65.40;;;;;;5046825;28;46342;-73
2022/11/01 11:05:58;;;;;;;2.25;1.27;;;19.20;65.10;;;;;;5046940;28;45368;-71
2022/11/01 11:08:25;;;;;;;0.90;0.80;;;19.20;65.00;;;;;;5046918;28;45165;-72
2022/11/01 11:10:52;;;;;;;3.10;0.90;;;19.30;65.00;;;;;;5047513;28;45278;-75
2022/11/01 11:13:20;;;;;;;5.38;1.00;;;19.30;64.40;;;;;;5047130;28;46386;-72
2022/11/01 11:15:48;;;;;;;1.80;1.00;;;19.30;65.20;;;;;;5044125;28;45248;-72
2022/11/01 11:18:23;;;;;;;1.92;0.90;;;19.30;64.80;;;;;;5043776;28;45458;-72
2022/11/01 11:20:52;;;;;;;2.20;0.95;;;19.30;65.30;;;;;;5043790;28;45451;-72
2022/11/01 11:23:20;;;;;;;1.08;0.93;;;19.40;65.40;;;;;;5046061;28;45467;-72
2022/11/01 11:25:50;;;;;;;2.60;1.08;;;19.40;65.00;;;;;;5045458;28;45535;-73
2022/11/01 11:28:25;;;;;;;1.30;1.00;;;19.30;65.60;;;;;;5046059;28;45285;-72
2022/11/01 11:30:52;;;;;;;1.55;0.93;;;19.40;65.80;;;;;;5044338;28;45488;-71
2022/11/01 11:33:20;;;;;;;2.67;1.20;;;19.40;65.80;;;;;;5040801;28;45392;-73
2022/11/01 11:35:55;;;;;;;1.75;1.13;;;19.40;66.10;;;;;;5046304;28;45305;-73
2022/11/01 11:38:40;;;;;;;2.53;1.00;;;19.40;65.80;;;;;;5045564;28;45436;-74
2022/11/01 11:41:09;;;;;;;2.85;1.17;;;19.40;65.60;;;;;;5046072;28;45340;-74
2022/11/01 11:43:39;;;;;;;4.72;1.10;;;19.40;65.40;;;;;;5045622;28;45683;-74
2022/11/01 11:46:10;;;;;;;1.70;1.02;;;19.40;65.80;;;;;;5043781;28;45330;-74
2022/11/01 11:48:47;;;;;;;1.20;1.10;;;19.40;65.40;;;;;;5046251;28;45251;-74
2022/11/01 11:51:14;;;;;;;2.88;1.00;;;19.40;64.90;;;;;;5046233;28;45323;-74
2022/11/01 11:53:41;;;;;;;2.10;1.05;;;19.50;65.20;;;;;;5045611;28;45849;-74
2022/11/01 11:56:08;;;;;;;2.20;1.17;;;19.50;65.30;;;;;;5045392;28;45381;-75
2022/11/01 11:58:36;;;;;;;2.88;1.02;;;19.40;65.30;;;;;;5045372;28;45227;-74
2022/11/01 12:01:04;;;;;;;2.20;1.30;;;19.50;65.00;;;;;;5046768;28;45431;-72
2022/11/01 12:03:34;;;;;;;1.13;0.90;;;19.50;64.70;;;;;;5045165;28;45526;-72
2022/11/01 12:06:07;;;;;;;3.35;1.17;;;19.50;64.70;;;;;;5045353;28;45984;-72
2022/11/01 12:08:37;;;;;;;3.25;1.30;;;19.70;64.70;;;;;;5053322;28;45332;-72
2022/11/01 12:11:04;;;;;;;2.00;1.00;;;19.70;64.00;;;;;;5049889;28;45135;-73
2022/11/01 12:13:33;;;;;;;2.97;1.50;;;19.90;63.80;;;;;;5046367;28;45310;-72
2022/11/01 12:16:18;;;;;;;2.50;1.15;;;20.10;63.50;;;;;;5047627;28;45412;-72
2022/11/01 12:18:51;;;;;;;1.30;0.95;;;20.20;63.20;;;;;;5045956;28;45151;-75
2022/11/01 12:21:21;;;;;;;3.55;1.20;;;20.30;63.00;;;;;;5046524;28;45240;-73
2022/11/01 12:23:49;;;;;;;7.93;2.42;;;20.40;62.90;;;;;;5045076;28;45485;-73
2022/11/01 12:26:15;;;;;;;5.68;1.10;;;20.50;62.60;;;;;;5046073;28;45515;-72
2022/11/01 12:28:43;;;;;;;2.45;1.00;;;20.60;62.40;;;;;;5046743;28;45442;-71
2022/11/01 12:31:13;;;;;;;1.83;1.02;;;20.50;62.50;;;;;;5063092;28;45294;-73
2022/11/01 12:33:42;;;;;;;3.20;1.20;;;20.40;62.70;;;;;;5052956;28;45545;-72
2022/11/01 12:36:09;;;;;;;4.97;2.28;;;20.40;63.00;;;;;;5046516;28;45531;-73
2022/11/01 12:38:41;;;;;;;3.17;1.55;;;20.30;63.20;;;;;;5044359;28;45194;-74
2022/11/01 12:41:29;;;;;;;2.30;1.10;;;20.30;63.00;;;;;;5049306;28;45440;-75
2022/11/01 12:44:02;;;;;;;7.68;1.67;;;20.30;63.10;;;;;;5042046;28;45562;-71
2022/11/01 12:46:31;;;;;;;3.53;1.10;;;20.30;63.10;;;;;;5045478;28;45392;-74
2022/11/01 12:49:00;;;;;;;3.85;1.50;;;20.40;62.70;;;;;;5045274;28;45537;-73
2022/11/01 12:51:28;;;;;;;3.10;1.25;;;20.60;61.90;;;;;;5046122;28;45331;-73
2022/11/01 12:53:58;;;;;;;8.52;2.10;;;20.60;61.70;;;;;;5053370;28;45460;-76
2022/11/01 12:56:25;;;;;;;4.00;1.77;;;20.60;61.70;;;;;;5043508;28;45300;-74
2022/11/01 12:58:52;;;;;;;5.30;1.70;;;20.50;62.10;;;;;;5061695;28;45335;-72
2022/11/01 13:01:27;;;;;;;2.90;1.25;;;20.60;62.00;;;;;;5061919;28;45400;-73